Time;durP1;ratioP1;P1;durP2;ratioP2;P2;SDS_P1;SDS_P2;PMS_P1;PMS_P2;Temp;Humidity;BMP_temperature;BMP_pressure;BME280_temperature;BME280_humidity;BME280_pressure;Samples;Min_cycle;Max_cycle;Signal;HPM_P1;HPM_P2
2023/02/06 00:01:37;;;;;;;4.70;3.20;;;;;;;;;;105723;1251;60653;-44
2023/02/06 00:04:05;;;;;;;5.30;3.30;;;;;;;;;;105817;1254;62168;-45
2023/02/06 00:06:40;;;;;;;4.80;3.20;;;;;;;;;;105769;1256;60536;-46
2023/02/06 00:09:08;;;;;;;6.00;3.10;;;;;;;;;;106352;1254;61824;-48
2023/02/06 00:11:40;;;;;;;6.30;2.70;;;;;;;;;;106850;1251;60503;-46
2023/02/06 00:14:08;;;;;;;5.90;2.20;;;;;;;;;;106336;1251;60421;-45
2023/02/06 00:16:55;;;;;;;4.30;2.00;;;;;;;;;;105668;1256;63541;-47
2023/02/06 00:19:25;;;;;;;4.80;2.70;;;;;;;;;;106054;1254;60424;-47
2023/02/06 00:21:53;;;;;;;4.80;2.20;;;;;;;;;;105964;1256;61067;-47
2023/02/06 00:24:21;;;;;;;3.40;2.60;;;;;;;;;;106465;1255;60456;-47
2023/02/06 00:26:49;;;;;;;3.90;2.90;;;;;;;;;;105682;1251;60491;-47
2023/02/06 00:29:17;;;;;;;4.80;2.70;;;;;;;;;;105626;1251;61364;-46
2023/02/06 00:31:46;;;;;;;3.80;2.00;;;;;;;;;;105882;1257;60329;-46
2023/02/06 00:34:14;;;;;;;5.00;3.40;;;;;;;;;;105768;1251;60710;-45
2023/02/06 00:36:42;;;;;;;3.90;2.70;;;;;;;;;;105689;1256;60420;-45
2023/02/06 00:39:10;;;;;;;4.50;2.60;;;;;;;;;;105624;1257;60376;-46
2023/02/06 00:41:38;;;;;;;4.90;3.00;;;;;;;;;;105935;1251;62198;-47
2023/02/06 00:44:06;;;;;;;4.90;2.40;;;;;;;;;;105958;1257;60539;-47
2023/02/06 00:46:34;;;;;;;3.00;2.20;;;;;;;;;;105600;1256;60754;-46
2023/02/06 00:49:02;;;;;;;2.20;1.70;;;;;;;;;;105650;1257;60500;-47
2023/02/06 00:51:30;;;;;;;3.00;2.40;;;;;;;;;;105538;1254;61349;-47
2023/02/06 00:53:58;;;;;;;5.80;3.50;;;;;;;;;;105887;1256;62093;-47
2023/02/06 00:56:26;;;;;;;6.00;3.30;;;;;;;;;;105705;1254;60348;-47
2023/02/06 00:58:54;;;;;;;5.80;3.50;;;;;;;;;;105711;1254;61357;-45
2023/02/06 01:01:25;;;;;;;6.50;3.80;;;;;;;;;;105922;1256;60527;-45
2023/02/06 01:03:53;;;;;;;7.10;4.30;;;;;;;;;;105785;1251;60539;-47
2023/02/06 01:06:21;;;;;;;5.50;3.80;;;;;;;;;;105555;1253;62270;-44
2023/02/06 01:08:51;;;;;;;5.50;3.30;;;;;;;;;;105797;1252;60520;-47
2023/02/06 01:11:20;;;;;;;4.10;2.70;;;;;;;;;;105424;1251;60532;-46
2023/02/06 01:13:48;;;;;;;4.40;3.10;;;;;;;;;;105664;1256;60412;-45
2023/02/06 01:16:18;;;;;;;7.50;4.30;;;;;;;;;;105686;1251;60400;-44
2023/02/06 01:18:47;;;;;;;7.00;4.60;;;;;;;;;;105636;1254;61922;-46
2023/02/06 01:21:19;;;;;;;7.70;3.20;;;;;;;;;;105683;1257;60715;-47
2023/02/06 01:23:47;;;;;;;4.00;2.80;;;;;;;;;;105776;1254;60893;-46
2023/02/06 01:26:17;;;;;;;6.70;3.40;;;;;;;;;;108765;1251;59342;-47
2023/02/06 01:28:45;;;;;;;5.00;3.30;;;;;;;;;;105645;1254;60477;-45
2023/02/06 01:31:17;;;;;;;5.80;3.30;;;;;;;;;;105922;1254;62125;-45
2023/02/06 01:33:46;;;;;;;3.40;2.50;;;;;;;;;;105987;1251;60575;-48
2023/02/06 01:36:14;;;;;;;4.10;2.60;;;;;;;;;;105800;1256;60828;-47
2023/02/06 01:38:42;;;;;;;5.50;2.30;;;;;;;;;;105542;1251;60539;-45
2023/02/06 01:41:10;;;;;;;4.50;2.20;;;;;;;;;;105695;1257;60428;-46
2023/02/06 01:43:39;;;;;;;5.40;2.50;;;;;;;;;;105887;1251;61858;-46
2023/02/06 01:46:07;;;;;;;3.60;3.00;;;;;;;;;;105664;1256;60445;-46
2023/02/06 01:48:37;;;;;;;4.10;3.00;;;;;;;;;;105639;1257;60755;-47
2023/02/06 01:51:06;;;;;;;4.70;2.90;;;;;;;;;;106018;1256;60504;-47
2023/02/06 01:53:34;;;;;;;3.10;2.00;;;;;;;;;;105825;1254;60509;-44
2023/02/06 01:56:02;;;;;;;4.70;3.00;;;;;;;;;;105790;1254;61877;-45
2023/02/06 01:58:31;;;;;;;5.00;2.50;;;;;;;;;;105683;1251;60761;-47
2023/02/06 02:00:59;;;;;;;4.80;2.80;;;;;;;;;;105545;1251;60798;-46
2023/02/06 02:03:28;;;;;;;4.70;2.90;;;;;;;;;;105766;1259;60510;-47
2023/02/06 02:05:58;;;;;;;3.30;2.70;;;;;;;;;;105806;1251;60399;-47
2023/02/06 02:08:29;;;;;;;3.80;2.20;;;;;;;;;;105933;1255;62227;-47
2023/02/06 02:10:57;;;;;;;3.40;2.40;;;;;;;;;;105455;1260;60516;-45
2023/02/06 02:13:27;;;;;;;3.40;1.60;;;;;;;;;;105728;1251;60759;-46
2023/02/06 02:15:59;;;;;;;4.70;2.00;;;;;;;;;;105674;1257;60392;-47
2023/02/06 02:18:30;;;;;;;3.50;2.00;;;;;;;;;;105915;1252;60472;-46
2023/02/06 02:20:58;;;;;;;4.80;2.30;;;;;;;;;;105702;1254;62162;-46
2023/02/06 02:23:46;;;;;;;2.90;1.80;;;;;;;;;;105834;1257;60380;-47
2023/02/06 02:26:31;;;;;;;3.30;1.80;;;;;;;;;;105519;1257;60729;-47
2023/02/06 02:29:18;;;;;;;3.60;1.90;;;;;;;;;;106112;1254;60437;-45
2023/02/06 02:32:00;;;;;;;4.10;2.40;;;;;;;;;;105642;1254;60484;-45
2023/02/06 02:34:28;;;;;;;3.80;2.10;;;;;;;;;;105695;1256;62193;-44
2023/02/06 02:37:03;;;;;;;2.10;1.30;;;;;;;;;;105928;1256;61109;-45
2023/02/06 02:39:43;;;;;;;2.10;1.60;;;;;;;;;;105810;1257;61018;-46
2023/02/06 02:42:14;;;;;;;2.70;1.80;;;;;;;;;;106066;1256;60394;-46
2023/02/06 02:44:46;;;;;;;2.30;1.60;;;;;;;;;;105928;1257;60549;-47
2023/02/06 02:47:15;;;;;;;2.30;1.60;;;;;;;;;;105590;1251;62026;-47
2023/02/06 02:49:43;;;;;;;4.00;1.60;;;;;;;;;;105874;1257;60424;-45
2023/02/06 02:52:13;;;;;;;3.40;1.80;;;;;;;;;;105908;1257;60354;-46
2023/02/06 02:54:41;;;;;;;3.10;2.30;;;;;;;;;;105522;1259;60517;-46
2023/02/06 02:57:13;;;;;;;4.30;2.30;;;;;;;;;;105723;1254;60508;-46
2023/02/06 02:59:42;;;;;;;4.40;2.10;;;;;;;;;;105731;1254;63357;-46
2023/02/06 03:02:11;;;;;;;3.80;2.20;;;;;;;;;;106522;1257;60323;-46
2023/02/06 03:04:41;;;;;;;4.00;2.30;;;;;;;;;;106082;1251;60774;-46
2023/02/06 03:07:28;;;;;;;4.20;2.50;;;;;;;;;;105516;1260;60400;-46
2023/02/06 03:10:19;;;;;;;3.00;2.20;;;;;;;;;;105699;1251;60596;-47
2023/02/06 03:12:51;;;;;;;4.40;3.00;;;;;;;;;;105879;1252;62322;-47
2023/02/06 03:15:28;;;;;;;3.70;2.00;;;;;;;;;;105688;1257;60440;-46
2023/02/06 03:18:00;;;;;;;3.60;1.90;;;;;;;;;;105827;1257;60736;-46
2023/02/06 03:20:29;;;;;;;6.00;2.70;;;;;;;;;;105571;1251;60364;-46
2023/02/06 03:22:58;;;;;;;6.20;2.10;;;;;;;;;;106227;1255;60427;-47
2023/02/06 03:25:29;;;;;;;4.90;2.60;;;;;;;;;;106243;1251;62167;-47
2023/02/06 03:27:57;;;;;;;5.80;3.40;;;;;;;;;;105631;1256;60375;-44
2023/02/06 03:30:25;;;;;;;5.30;3.10;;;;;;;;;;105990;1257;60740;-46
2023/02/06 03:32:54;;;;;;;6.40;2.90;;;;;;;;;;106734;1256;60507;-45
2023/02/06 03:35:24;;;;;;;5.70;3.70;;;;;;;;;;105687;1251;60510;-45
2023/02/06 03:37:52;;;;;;;6.90;3.10;;;;;;;;;;106501;1255;61894;-44
2023/02/06 03:40:32;;;;;;;7.20;3.30;;;;;;;;;;105548;1257;60473;-46
2023/02/06 03:43:02;;;;;;;4.20;3.00;;;;;;;;;;105628;1251;61164;-45
2023/02/06 03:45:30;;;;;;;5.90;3.70;;;;;;;;;;105764;1257;60450;-47
2023/02/06 03:48:02;;;;;;;4.10;2.70;;;;;;;;;;105563;1254;60415;-45
2023/02/06 03:50:32;;;;;;;4.10;2.40;;;;;;;;;;105666;1256;61961;-46
2023/02/06 03:52:59;;;;;;;6.50;3.60;;;;;;;;;;106140;1257;59722;-47
2023/02/06 03:55:27;;;;;;;5.10;3.70;;;;;;;;;;105747;1257;60635;-45
2023/02/06 03:58:09;;;;;;;6.40;3.60;;;;;;;;;;105968;1256;60613;-46
2023/02/06 04:00:37;;;;;;;6.40;4.00;;;;;;;;;;105631;1254;60437;-46
2023/02/06 04:03:05;;;;;;;4.80;3.20;;;;;;;;;;105584;1251;62110;-47
2023/02/06 04:05:33;;;;;;;5.40;3.70;;;;;;;;;;105564;1251;60594;-46
2023/02/06 04:08:01;;;;;;;5.20;4.50;;;;;;;;;;105732;1251;60841;-47
2023/02/06 04:10:29;;;;;;;5.20;3.40;;;;;;;;;;105457;1261;60523;-47
2023/02/06 04:12:58;;;;;;;7.20;4.70;;;;;;;;;;105821;1257;60510;-46
2023/02/06 04:15:26;;;;;;;9.40;5.90;;;;;;;;;;106479;1252;61891;-46
2023/02/06 04:17:54;;;;;;;10.50;5.50;;;;;;;;;;105446;1257;60435;-46
2023/02/06 04:20:28;;;;;;;9.60;6.30;;;;;;;;;;108357;1256;60529;-46
2023/02/06 04:22:57;;;;;;;10.40;6.10;;;;;;;;;;105650;1257;60533;-45
2023/02/06 04:25:25;;;;;;;9.40;5.50;;;;;;;;;;105905;1251;60517;-47
2023/02/06 04:27:52;;;;;;;5.90;3.60;;;;;;;;;;105767;1254;125685;-46
2023/02/06 04:32:02;;;;;;;7.80;4.30;;;;;;;;;;102662;1290;601125;-45
2023/02/06 04:34:30;;;;;;;5.60;3.80;;;;;;;;;;105221;1264;59245;-46
2023/02/06 04:36:58;;;;;;;7.30;4.60;;;;;;;;;;105769;1266;58959;-48
2023/02/06 04:39:27;;;;;;;6.50;4.70;;;;;;;;;;104893;1267;59622;-46
2023/02/06 04:41:54;;;;;;;5.40;3.80;;;;;;;;;;105283;1263;59342;-46
2023/02/06 04:44:22;;;;;;;5.80;3.50;;;;;;;;;;104718;1264;60737;-47
2023/02/06 04:46:50;;;;;;;5.70;3.90;;;;;;;;;;105283;1266;133509;-47
2023/02/06 04:49:18;;;;;;;7.50;4.80;;;;;;;;;;104958;1261;59030;-46
2023/02/06 04:51:46;;;;;;;6.60;4.40;;;;;;;;;;105090;1261;60243;-45
2023/02/06 04:54:16;;;;;;;6.90;4.50;;;;;;;;;;105722;1257;59074;-45
2023/02/06 04:56:45;;;;;;;6.20;4.20;;;;;;;;;;105624;1254;60814;-45
2023/02/06 04:59:13;;;;;;;5.60;3.80;;;;;;;;;;105502;1257;59601;-45
2023/02/06 05:01:41;;;;;;;4.30;3.30;;;;;;;;;;105550;1257;59619;-47
2023/02/06 05:04:09;;;;;;;6.70;3.90;;;;;;;;;;105578;1258;61475;-47
2023/02/06 05:06:38;;;;;;;10.20;4.40;;;;;;;;;;105844;1257;61050;-47
2023/02/06 05:09:06;;;;;;;5.90;3.80;;;;;;;;;;105987;1254;60538;-47
2023/02/06 05:11:34;;;;;;;4.10;3.40;;;;;;;;;;105515;1254;59720;-46
2023/02/06 05:14:02;;;;;;;3.80;2.70;;;;;;;;;;106409;1251;59616;-45
2023/02/06 05:16:31;;;;;;;5.10;3.80;;;;;;;;;;106239;1253;61036;-47
2023/02/06 05:18:59;;;;;;;5.60;3.50;;;;;;;;;;105952;1256;59617;-46
2023/02/06 05:21:27;;;;;;;5.70;4.00;;;;;;;;;;105957;1254;61081;-46
2023/02/06 05:23:55;;;;;;;5.80;3.40;;;;;;;;;;105657;1255;59756;-45
2023/02/06 05:26:26;;;;;;;6.60;3.40;;;;;;;;;;105748;1251;60324;-44
2023/02/06 05:28:53;;;;;;;5.40;3.60;;;;;;;;;;105929;1254;61326;-46
2023/02/06 05:31:21;;;;;;;5.40;3.70;;;;;;;;;;105660;1257;59565;-47
2023/02/06 05:33:53;;;;;;;6.40;4.30;;;;;;;;;;106090;1254;60699;-47
2023/02/06 05:36:21;;;;;;;4.60;3.40;;;;;;;;;;105835;1251;59669;-48
2023/02/06 05:38:49;;;;;;;4.80;3.40;;;;;;;;;;105579;1256;59627;-48
2023/02/06 05:41:17;;;;;;;6.50;5.10;;;;;;;;;;105516;1251;62986;-48
2023/02/06 05:43:45;;;;;;;7.80;5.10;;;;;;;;;;106333;1254;59536;-46
2023/02/06 05:46:13;;;;;;;6.60;5.10;;;;;;;;;;105803;1256;60493;-46
2023/02/06 05:51:43;;;;;;;8.40;5.20;;;;;;;;;;104296;1292;601200;-79
2023/02/06 05:54:12;;;;;;;8.40;5.70;;;;;;;;;;104651;1270;58852;-44
2023/02/06 05:56:39;;;;;;;6.00;3.90;;;;;;;;;;104657;1270;59453;-43
2023/02/06 05:59:07;;;;;;;13.90;7.40;;;;;;;;;;104580;1272;60338;-45
2023/02/06 06:01:35;;;;;;;8.10;4.00;;;;;;;;;;104445;1272;59023;-45
2023/02/06 06:04:03;;;;;;;13.50;6.40;;;;;;;;;;105132;1273;60745;-47
2023/02/06 06:06:32;;;;;;;12.20;7.80;;;;;;;;;;104490;1270;59635;-45
2023/02/06 06:09:00;;;;;;;10.10;4.80;;;;;;;;;;104721;1267;59031;-45
2023/02/06 06:11:28;;;;;;;8.00;4.20;;;;;;;;;;107134;1267;60541;-46
2023/02/06 06:13:56;;;;;;;7.50;4.50;;;;;;;;;;104910;1270;59157;-45
2023/02/06 06:16:24;;;;;;;5.00;3.00;;;;;;;;;;104665;1271;60759;-45
2023/02/06 06:18:52;;;;;;;4.60;3.00;;;;;;;;;;105525;1270;59628;-47
2023/02/06 06:21:20;;;;;;;4.30;2.80;;;;;;;;;;104098;1273;59643;-45
2023/02/06 06:23:48;;;;;;;4.40;3.10;;;;;;;;;;105014;1267;61309;-48
2023/02/06 06:26:16;;;;;;;6.10;3.50;;;;;;;;;;108260;1267;57760;-45
2023/02/06 06:28:44;;;;;;;5.20;2.30;;;;;;;;;;108392;1267;59416;-44
2023/02/06 06:31:12;;;;;;;5.60;2.60;;;;;;;;;;104740;1267;59583;-45
2023/02/06 06:33:40;;;;;;;4.40;2.20;;;;;;;;;;108258;1265;58032;-46
2023/02/06 06:36:08;;;;;;;4.90;2.60;;;;;;;;;;106640;1272;61510;-49
2023/02/06 06:38:36;;;;;;;5.00;2.70;;;;;;;;;;105138;1269;59641;-44
2023/02/06 06:41:04;;;;;;;9.60;2.30;;;;;;;;;;104537;1270;60514;-47
2023/02/06 06:43:33;;;;;;;3.50;2.20;;;;;;;;;;104571;1270;59745;-45
2023/02/06 06:46:01;;;;;;;5.80;2.50;;;;;;;;;;104210;1266;59658;-44
2023/02/06 06:48:29;;;;;;;5.40;2.80;;;;;;;;;;104576;1272;61049;-46
2023/02/06 06:50:57;;;;;;;3.30;2.10;;;;;;;;;;104446;1270;59730;-47
2023/02/06 06:53:25;;;;;;;5.70;2.90;;;;;;;;;;104951;1267;60637;-46
2023/02/06 06:55:53;;;;;;;3.60;2.40;;;;;;;;;;104968;1272;59663;-46
2023/02/06 06:58:22;;;;;;;4.20;2.30;;;;;;;;;;105100;1267;59689;-47
2023/02/06 07:00:51;;;;;;;4.40;2.80;;;;;;;;;;104580;1267;61434;-44
2023/02/06 07:03:20;;;;;;;3.70;2.20;;;;;;;;;;105329;1271;59646;-46
2023/02/06 07:05:48;;;;;;;6.70;4.40;;;;;;;;;;104937;1271;60857;-44
2023/02/06 07:08:17;;;;;;;4.80;3.10;;;;;;;;;;105322;1270;60464;-45
2023/02/06 07:10:46;;;;;;;5.70;3.80;;;;;;;;;;104815;1266;59601;-46
2023/02/06 07:13:15;;;;;;;6.50;4.40;;;;;;;;;;106652;1270;60338;-47
2023/02/06 07:15:44;;;;;;;5.70;3.70;;;;;;;;;;104557;1270;59711;-46
2023/02/06 07:18:12;;;;;;;4.80;2.90;;;;;;;;;;104555;1267;60700;-44
2023/02/06 07:20:39;;;;;;;6.50;3.20;;;;;;;;;;104312;1267;59788;-46
2023/02/06 07:23:07;;;;;;;7.90;4.10;;;;;;;;;;104230;1273;59675;-46
2023/02/06 07:25:35;;;;;;;7.80;4.30;;;;;;;;;;104905;1270;61082;-42
2023/02/06 07:28:04;;;;;;;6.90;4.30;;;;;;;;;;104300;1267;59663;-46
2023/02/06 07:30:32;;;;;;;7.70;4.20;;;;;;;;;;104175;1267;60982;-47
2023/02/06 07:33:00;;;;;;;8.20;4.90;;;;;;;;;;105707;1267;59609;-44
2023/02/06 07:35:28;;;;;;;8.30;5.10;;;;;;;;;;105341;1267;59724;-48
2023/02/06 07:37:56;;;;;;;10.00;5.90;;;;;;;;;;104631;1267;61357;-42
2023/02/06 07:40:25;;;;;;;9.60;5.10;;;;;;;;;;105445;1259;59855;-45
2023/02/06 07:43:05;;;;;;;10.40;5.80;;;;;;;;;;105347;1259;60512;-45
2023/02/06 07:45:34;;;;;;;10.80;6.60;;;;;;;;;;105508;1260;60993;-45
2023/02/06 07:48:03;;;;;;;6.30;4.80;;;;;;;;;;105497;1257;59901;-44
2023/02/06 07:50:32;;;;;;;11.70;6.30;;;;;;;;;;105435;1260;61057;-45
2023/02/06 07:53:00;;;;;;;9.60;5.70;;;;;;;;;;105469;1257;59620;-44
2023/02/06 07:55:28;;;;;;;11.20;6.00;;;;;;;;;;105576;1257;60471;-46
2023/02/06 07:57:57;;;;;;;8.90;5.80;;;;;;;;;;105164;1258;59532;-43
2023/02/06 08:00:25;;;;;;;12.30;6.00;;;;;;;;;;105732;1257;59626;-45
2023/02/06 08:02:53;;;;;;;9.30;5.60;;;;;;;;;;105480;1257;61150;-46
2023/02/06 08:05:20;;;;;;;6.50;3.90;;;;;;;;;;105070;1260;59501;-47
2023/02/06 08:07:49;;;;;;;5.30;3.20;;;;;;;;;;105027;1259;61157;-46
2023/02/06 08:10:17;;;;;;;7.20;4.10;;;;;;;;;;105303;1260;59747;-45
2023/02/06 08:13:06;;;;;;;8.60;5.10;;;;;;;;;;105275;1260;59701;-47
2023/02/06 08:15:35;;;;;;;7.20;4.70;;;;;;;;;;105673;1257;62395;-46
2023/02/06 08:18:03;;;;;;;6.50;4.00;;;;;;;;;;105180;1260;59717;-46
2023/02/06 08:20:31;;;;;;;7.30;4.90;;;;;;;;;;105563;1257;60738;-47
2023/02/06 08:22:59;;;;;;;7.10;4.80;;;;;;;;;;105270;1259;59694;-43
2023/02/06 08:25:27;;;;;;;5.90;4.10;;;;;;;;;;104941;1261;59640;-45
2023/02/06 08:27:55;;;;;;;6.60;3.70;;;;;;;;;;104945;1256;62743;-45
2023/02/06 08:30:23;;;;;;;6.00;3.90;;;;;;;;;;108022;1256;59556;-44
2023/02/06 08:32:51;;;;;;;5.40;3.80;;;;;;;;;;105081;1258;60811;-46
2023/02/06 08:35:19;;;;;;;7.50;3.40;;;;;;;;;;105408;1258;59644;-44
2023/02/06 08:37:47;;;;;;;6.20;3.50;;;;;;;;;;105392;1259;60292;-46
2023/02/06 08:40:16;;;;;;;4.40;3.30;;;;;;;;;;105605;1256;61043;-43
2023/02/06 08:42:47;;;;;;;4.90;3.40;;;;;;;;;;105656;1257;59617;-45
2023/02/06 08:45:15;;;;;;;4.60;2.50;;;;;;;;;;105732;1256;60606;-45
2023/02/06 08:47:43;;;;;;;3.50;2.30;;;;;;;;;;105613;1260;59691;-47
2023/02/06 08:50:11;;;;;;;4.70;3.50;;;;;;;;;;105839;1261;59621;-43
2023/02/06 08:52:39;;;;;;;5.00;2.90;;;;;;;;;;105346;1258;61280;-46
2023/02/06 08:55:07;;;;;;;4.40;2.30;;;;;;;;;;105705;1257;58939;-45
2023/02/06 08:57:36;;;;;;;3.10;2.20;;;;;;;;;;105860;1256;60581;-45
2023/02/06 09:00:04;;;;;;;3.20;2.20;;;;;;;;;;105313;1258;59661;-47
2023/02/06 09:02:32;;;;;;;3.10;2.00;;;;;;;;;;105303;1259;59579;-48
2023/02/06 09:05:00;;;;;;;3.40;1.80;;;;;;;;;;105497;1260;61407;-45
2023/02/06 09:07:29;;;;;;;3.00;1.80;;;;;;;;;;105397;1259;59752;-47
2023/02/06 09:09:57;;;;;;;5.80;2.20;;;;;;;;;;105355;1259;60678;-44
2023/02/06 09:12:25;;;;;;;2.90;1.50;;;;;;;;;;105338;1258;59667;-46
2023/02/06 09:14:53;;;;;;;3.50;2.30;;;;;;;;;;105363;1257;59660;-46
2023/02/06 09:17:23;;;;;;;3.20;1.80;;;;;;;;;;105331;1258;61219;-45
2023/02/06 09:19:51;;;;;;;2.40;2.10;;;;;;;;;;105247;1257;59700;-47
2023/02/06 09:22:19;;;;;;;4.90;2.20;;;;;;;;;;106449;1259;61356;-46
2023/02/06 09:24:47;;;;;;;4.90;2.60;;;;;;;;;;105520;1260;59992;-48
2023/02/06 09:27:15;;;;;;;3.30;2.20;;;;;;;;;;104849;1257;59647;-44
2023/02/06 09:29:43;;;;;;;4.40;2.40;;;;;;;;;;105003;1260;61771;-44
2023/02/06 09:32:11;;;;;;;3.60;1.70;;;;;;;;;;105242;1257;59691;-47
2023/02/06 09:34:39;;;;;;;3.20;1.50;;;;;;;;;;106072;1257;60604;-46
2023/02/06 09:37:07;;;;;;;2.60;1.60;;;;;;;;;;105870;1259;59740;-45
2023/02/06 09:39:36;;;;;;;2.00;1.30;;;;;;;;;;105517;1256;59651;-45
2023/02/06 09:42:10;;;;;;;3.00;1.30;;;;;;;;;;105382;1256;61358;-46
2023/02/06 09:44:39;;;;;;;3.90;2.50;;;;;;;;;;105511;1259;60092;-46
2023/02/06 09:47:10;;;;;;;3.90;2.60;;;;;;;;;;105252;1257;60790;-46
2023/02/06 09:49:41;;;;;;;3.00;2.20;;;;;;;;;;105262;1256;59670;-46
2023/02/06 09:52:20;;;;;;;2.40;1.50;;;;;;;;;;105430;1259;59538;-45
2023/02/06 09:54:54;;;;;;;2.10;1.20;;;;;;;;;;105580;1259;61550;-47
2023/02/06 09:57:42;;;;;;;2.50;1.30;;;;;;;;;;105269;1257;59620;-44
2023/02/06 10:00:11;;;;;;;2.00;1.20;;;;;;;;;;105364;1263;60543;-48
2023/02/06 10:03:02;;;;;;;1.30;0.90;;;;;;;;;;105576;1256;60536;-47
2023/02/06 10:05:39;;;;;;;1.60;1.00;;;;;;;;;;105319;1257;60403;-48
2023/02/06 10:08:21;;;;;;;3.30;1.60;;;;;;;;;;105396;1257;62032;-48
2023/02/06 10:10:52;;;;;;;12.90;5.70;;;;;;;;;;105309;1256;60533;-48
2023/02/06 10:13:38;;;;;;;1.60;1.20;;;;;;;;;;105202;1259;61907;-49
2023/02/06 10:16:10;;;;;;;3.30;1.70;;;;;;;;;;105323;1258;60432;-48
2023/02/06 10:18:40;;;;;;;2.10;1.10;;;;;;;;;;105625;1256;60422;-49
2023/02/06 10:21:08;;;;;;;2.20;1.20;;;;;;;;;;105345;1258;63104;-49
2023/02/06 10:23:38;;;;;;;3.10;1.00;;;;;;;;;;104845;1259;61763;-47
2023/02/06 10:26:17;;;;;;;2.20;1.10;;;;;;;;;;105294;1257;60689;-46
2023/02/06 10:28:49;;;;;;;3.40;0.90;;;;;;;;;;105363;1257;60531;-48
2023/02/06 10:31:20;;;;;;;2.30;1.10;;;;;;;;;;105603;1256;60309;-47
2023/02/06 10:33:48;;;;;;;1.60;0.90;;;;;;;;;;106107;1256;60962;-48
2023/02/06 10:36:29;;;;;;;1.80;1.00;;;;;;;;;;105378;1256;60436;-47
2023/02/06 10:39:10;;;;;;;1.50;0.90;;;;;;;;;;107090;1256;60695;-46
2023/02/06 10:42:02;;;;;;;1.60;0.80;;;;;;;;;;105524;1256;60533;-47
2023/02/06 10:44:33;;;;;;;2.10;0.70;;;;;;;;;;106386;1256;60761;-47
2023/02/06 10:47:01;;;;;;;1.10;0.80;;;;;;;;;;105448;1259;62564;-48
2023/02/06 10:49:34;;;;;;;2.20;1.20;;;;;;;;;;105399;1256;60572;-48
2023/02/06 10:52:06;;;;;;;0.90;0.70;;;;;;;;;;105058;1259;60804;-50
2023/02/06 10:54:37;;;;;;;1.00;0.70;;;;;;;;;;105156;1256;60296;-47
2023/02/06 10:57:15;;;;;;;2.00;0.90;;;;;;;;;;105344;1255;60857;-50
2023/02/06 10:59:47;;;;;;;1.20;0.80;;;;;;;;;;105252;1255;60747;-48
2023/02/06 11:02:25;;;;;;;2.10;1.00;;;;;;;;;;104483;1259;61295;-49
2023/02/06 11:04:57;;;;;;;2.80;1.30;;;;;;;;;;105069;1256;60769;-49
2023/02/06 11:07:29;;;;;;;1.80;1.00;;;;;;;;;;104944;1260;60533;-49
2023/02/06 11:09:57;;;;;;;3.10;1.00;;;;;;;;;;105059;1257;60562;-48
2023/02/06 11:12:25;;;;;;;1.40;0.90;;;;;;;;;;105777;1259;61906;-48
2023/02/06 11:14:53;;;;;;;2.00;1.10;;;;;;;;;;104769;1257;60426;-48
2023/02/06 11:17:22;;;;;;;1.30;0.80;;;;;;;;;;108737;1256;60840;-49
2023/02/06 11:19:50;;;;;;;1.10;0.70;;;;;;;;;;108939;1256;58364;-49
2023/02/06 11:22:28;;;;;;;0.90;0.70;;;;;;;;;;109040;1258;58402;-47
2023/02/06 11:24:59;;;;;;;1.00;0.70;;;;;;;;;;109059;1256;61091;-49
2023/02/06 11:27:27;;;;;;;2.30;0.90;;;;;;;;;;108985;1256;58472;-49
2023/02/06 11:29:56;;;;;;;2.20;1.40;;;;;;;;;;104775;1256;60747;-49
2023/02/06 11:32:29;;;;;;;2.10;1.20;;;;;;;;;;106976;1261;60444;-45
2023/02/06 11:34:58;;;;;;;2.60;1.20;;;;;;;;;;105496;1257;60385;-46
2023/02/06 11:37:30;;;;;;;2.70;1.20;;;;;;;;;;106078;1256;61346;-48
2023/02/06 11:40:18;;;;;;;2.60;1.10;;;;;;;;;;105586;1256;60425;-48
2023/02/06 11:42:47;;;;;;;1.50;0.90;;;;;;;;;;105602;1259;60649;-47
2023/02/06 11:45:21;;;;;;;2.70;1.20;;;;;;;;;;105586;1258;60550;-48
2023/02/06 11:47:49;;;;;;;3.70;1.00;;;;;;;;;;105401;1256;60365;-47
2023/02/06 11:50:23;;;;;;;2.00;1.00;;;;;;;;;;105392;1257;62161;-48
2023/02/06 11:52:56;;;;;;;1.80;1.00;;;;;;;;;;105568;1258;60358;-46
2023/02/06 11:55:28;;;;;;;1.10;0.80;;;;;;;;;;105290;1257;60891;-47
2023/02/06 11:58:19;;;;;;;3.00;1.20;;;;;;;;;;105532;1260;60505;-47
2023/02/06 12:00:50;;;;;;;1.20;0.90;;;;;;;;;;105791;1256;60424;-47
2023/02/06 12:03:21;;;;;;;1.10;0.70;;;;;;;;;;105249;1257;62171;-46
2023/02/06 12:05:49;;;;;;;3.00;0.70;;;;;;;;;;105367;1260;60418;-46
2023/02/06 12:08:18;;;;;;;1.10;0.80;;;;;;;;;;105257;1257;60789;-47
2023/02/06 12:10:51;;;;;;;1.50;1.00;;;;;;;;;;105487;1260;60461;-46
2023/02/06 12:13:20;;;;;;;1.60;0.90;;;;;;;;;;105295;1256;60754;-45
2023/02/06 12:15:49;;;;;;;1.40;0.80;;;;;;;;;;105598;1256;61995;-47
2023/02/06 12:18:26;;;;;;;2.00;1.00;;;;;;;;;;105508;1260;60572;-47
2023/02/06 12:20:58;;;;;;;5.20;2.50;;;;;;;;;;105333;1256;60512;-48
2023/02/06 12:23:27;;;;;;;1.50;0.90;;;;;;;;;;105334;1260;60540;-48
2023/02/06 12:25:56;;;;;;;1.30;0.70;;;;;;;;;;105571;1255;60320;-47
2023/02/06 12:28:28;;;;;;;1.20;0.80;;;;;;;;;;105342;1255;61850;-47
2023/02/06 12:30:57;;;;;;;2.10;0.90;;;;;;;;;;105433;1260;60448;-46
2023/02/06 12:33:33;;;;;;;2.00;0.90;;;;;;;;;;105795;1256;60772;-44
2023/02/06 12:36:29;;;;;;;2.50;1.40;;;;;;;;;;105624;1255;60415;-47
2023/02/06 12:39:04;;;;;;;1.20;0.70;;;;;;;;;;105411;1257;60445;-45
2023/02/06 12:41:48;;;;;;;1.00;0.70;;;;;;;;;;105260;1256;62359;-47
2023/02/06 12:44:19;;;;;;;1.20;0.70;;;;;;;;;;105283;1259;61473;-46
2023/02/06 12:46:49;;;;;;;3.20;1.50;;;;;;;;;;105347;1256;61193;-47
2023/02/06 12:49:40;;;;;;;2.10;1.30;;;;;;;;;;105147;1259;60412;-46
2023/02/06 12:52:24;;;;;;;1.80;1.20;;;;;;;;;;105463;1255;61193;-47
2023/02/06 12:55:10;;;;;;;3.00;1.40;;;;;;;;;;105662;1256;62075;-46
2023/02/06 12:57:38;;;;;;;2.20;1.10;;;;;;;;;;105826;1256;60431;-45
2023/02/06 13:00:25;;;;;;;2.20;1.00;;;;;;;;;;105650;1256;60763;-47
2023/02/06 13:03:04;;;;;;;3.00;1.20;;;;;;;;;;105228;1256;60454;-46
2023/02/06 13:05:34;;;;;;;1.40;1.00;;;;;;;;;;105364;1257;60468;-46
2023/02/06 13:08:04;;;;;;;2.90;1.10;;;;;;;;;;106251;1254;62161;-46
2023/02/06 13:10:32;;;;;;;2.30;1.20;;;;;;;;;;105483;1259;60441;-45
2023/02/06 13:13:01;;;;;;;2.80;1.20;;;;;;;;;;105506;1256;60791;-47
2023/02/06 13:15:39;;;;;;;2.40;1.20;;;;;;;;;;105390;1260;60518;-46
2023/02/06 13:18:30;;;;;;;1.20;0.80;;;;;;;;;;105239;1257;60520;-45
2023/02/06 13:21:13;;;;;;;2.10;0.90;;;;;;;;;;104664;1259;62472;-46
2023/02/06 13:23:49;;;;;;;1.90;1.10;;;;;;;;;;105043;1256;60773;-48
2023/02/06 13:26:17;;;;;;;1.90;1.00;;;;;;;;;;109080;1255;60928;-46
2023/02/06 13:28:45;;;;;;;1.50;1.00;;;;;;;;;;107853;1260;59437;-48
2023/02/06 13:31:20;;;;;;;1.80;1.00;;;;;;;;;;105467;1256;60557;-47
2023/02/06 13:33:59;;;;;;;2.50;1.10;;;;;;;;;;107171;1255;66072;-47
2023/02/06 13:36:41;;;;;;;1.30;1.00;;;;;;;;;;105450;1259;60616;-48
2023/02/06 13:39:13;;;;;;;1.90;1.10;;;;;;;;;;105622;1259;60961;-46
2023/02/06 13:41:44;;;;;;;1.80;1.00;;;;;;;;;;105269;1259;60541;-46
2023/02/06 13:44:38;;;;;;;3.20;1.10;;;;;;;;;;105509;1257;60380;-47
2023/02/06 13:47:14;;;;;;;1.10;0.80;;;;;;;;;;105309;1256;61915;-46
2023/02/06 13:49:54;;;;;;;1.60;1.20;;;;;;;;;;105196;1259;60435;-47
2023/02/06 13:52:22;;;;;;;1.80;1.20;;;;;;;;;;105316;1256;60760;-46
2023/02/06 13:55:10;;;;;;;8.20;2.10;;;;;;;;;;105480;1259;60326;-47
2023/02/06 13:57:38;;;;;;;3.10;1.10;;;;;;;;;;105605;1257;60435;-47
2023/02/06 14:00:09;;;;;;;2.90;1.80;;;;;;;;;;105592;1256;62149;-47
2023/02/06 14:04:47;;;;;;;1.50;0.70;;;;;;;;;;102941;1288;601074;-47
2023/02/06 14:07:33;;;;;;;1.90;0.90;;;;;;;;;;105190;1267;58986;-46
2023/02/06 14:10:04;;;;;;;1.20;1.00;;;;;;;;;;105052;1267;59000;-47
2023/02/06 14:12:50;;;;;;;1.80;0.90;;;;;;;;;;105151;1261;60686;-46
2023/02/06 14:15:31;;;;;;;2.10;1.20;;;;;;;;;;105662;1261;59097;-45
2023/02/06 14:18:12;;;;;;;2.90;1.30;;;;;;;;;;105229;1262;84170;-46
2023/02/06 14:20:43;;;;;;;1.60;1.00;;;;;;;;;;105257;1257;59614;-46
2023/02/06 14:23:19;;;;;;;3.20;1.60;;;;;;;;;;105318;1257;59038;-45
2023/02/06 14:26:06;;;;;;;3.80;1.40;;;;;;;;;;105656;1257;59609;-45
2023/02/06 14:28:37;;;;;;;2.70;1.60;;;;;;;;;;105694;1257;59507;-45
2023/02/06 14:31:14;;;;;;;3.00;1.20;;;;;;;;;;105652;1257;60789;-46
2023/02/06 14:33:42;;;;;;;2.00;1.30;;;;;;;;;;105888;1257;59601;-46
2023/02/06 14:36:16;;;;;;;1.60;1.00;;;;;;;;;;105926;1257;59637;-47
2023/02/06 14:38:44;;;;;;;2.40;1.60;;;;;;;;;;105665;1251;61092;-47
2023/02/06 14:41:12;;;;;;;2.70;1.30;;;;;;;;;;105783;1257;59621;-47
2023/02/06 14:43:40;;;;;;;7.60;1.50;;;;;;;;;;105926;1257;60460;-47
2023/02/06 14:46:11;;;;;;;1.70;1.10;;;;;;;;;;105851;1256;59733;-47
2023/02/06 14:48:44;;;;;;;2.00;1.30;;;;;;;;;;105949;1257;61760;-46
2023/02/06 14:51:31;;;;;;;4.10;1.50;;;;;;;;;;105815;1251;61634;-47
2023/02/06 14:54:00;;;;;;;1.70;1.10;;;;;;;;;;105896;1256;59532;-46
2023/02/06 14:56:30;;;;;;;1.90;1.20;;;;;;;;;;105866;1257;60597;-46
2023/02/06 14:59:17;;;;;;;3.40;1.20;;;;;;;;;;105666;1253;59640;-45